Time;durP1;ratioP1;P1;durP2;ratioP2;P2;SDS_P1;SDS_P2;PMS_P1;PMS_P2;Temp;Humidity;BMP_temperature;BMP_pressure;BME280_temperature;BME280_humidity;BME280_pressure;Samples;Min_cycle;Max_cycle;Signal;HPM_P1;HPM_P2
2024/03/31 00:01:16;;;;;;;8.60;1.50;;;;;;;;;;6186023;23;20252;-91
2024/03/31 00:03:41;;;;;;;5.05;1.40;;;;;;;;;;6184548;23;20230;-91
2024/03/31 00:06:06;;;;;;;8.95;1.40;;;;;;;;;;6186080;23;19993;-90
2024/03/31 00:08:32;;;;;;;5.97;1.52;;;;;;;;;;6185218;23;20025;-90
2024/03/31 00:11:00;;;;;;;4.57;1.00;;;;;;;;;;6186092;23;20005;-91
2024/03/31 00:13:27;;;;;;;16.33;4.85;;;;;;;;;;6186185;23;20027;-91
2024/03/31 00:15:52;;;;;;;9.75;2.15;;;;;;;;;;6159448;23;20000;-91
2024/03/31 00:18:17;;;;;;;4.28;1.45;;;;;;;;;;6186541;23;20001;-91
2024/03/31 00:20:42;;;;;;;11.13;2.07;;;;;;;;;;6185806;23;20327;-91
2024/03/31 00:23:07;;;;;;;19.47;1.77;;;;;;;;;;6186138;23;20737;-90
2024/03/31 00:25:33;;;;;;;10.35;2.45;;;;;;;;;;6185985;23;20694;-91
2024/03/31 00:27:58;;;;;;;13.60;1.40;;;;;;;;;;6185511;23;19997;-90
2024/03/31 00:30:23;;;;;;;6.53;1.30;;;;;;;;;;6185747;23;20257;-91
2024/03/31 00:32:49;;;;;;;6.80;1.40;;;;;;;;;;6184335;23;20082;-90
2024/03/31 00:35:15;;;;;;;5.03;1.40;;;;;;;;;;6185947;23;20301;-90
2024/03/31 00:37:40;;;;;;;9.52;1.40;;;;;;;;;;6187127;23;20454;-90
2024/03/31 00:40:05;;;;;;;4.33;1.37;;;;;;;;;;6214708;23;20003;-90
2024/03/31 00:42:30;;;;;;;6.50;1.25;;;;;;;;;;6216394;23;20302;-91
2024/03/31 00:44:56;;;;;;;6.83;1.23;;;;;;;;;;6188543;23;20424;-91
2024/03/31 00:47:21;;;;;;;5.63;1.30;;;;;;;;;;6215794;23;20211;-90
2024/03/31 00:49:46;;;;;;;6.90;1.45;;;;;;;;;;6189665;23;20254;-91
2024/03/31 00:52:12;;;;;;;5.57;1.25;;;;;;;;;;6216316;23;19993;-90
2024/03/31 00:54:41;;;;;;;14.00;2.97;;;;;;;;;;6214799;23;20035;-90
2024/03/31 00:57:06;;;;;;;7.40;1.73;;;;;;;;;;6215608;23;20304;-91
2024/03/31 00:59:31;;;;;;;10.20;1.80;;;;;;;;;;6213251;23;20408;-91
2024/03/31 01:01:57;;;;;;;8.63;1.70;;;;;;;;;;6213246;23;20024;-90
2024/03/31 01:04:22;;;;;;;11.88;1.73;;;;;;;;;;6214759;23;20534;-90
2024/03/31 01:06:47;;;;;;;5.13;1.40;;;;;;;;;;6214637;23;20000;-91
2024/03/31 01:09:12;;;;;;;7.13;1.88;;;;;;;;;;6214671;23;20215;-90
2024/03/31 01:11:38;;;;;;;13.70;2.95;;;;;;;;;;6215004;23;20051;-91
2024/03/31 01:14:03;;;;;;;7.32;1.38;;;;;;;;;;6214625;23;19992;-91
2024/03/31 01:16:29;;;;;;;11.50;1.70;;;;;;;;;;6213083;23;20109;-90
2024/03/31 01:18:54;;;;;;;8.55;1.55;;;;;;;;;;6214824;23;20442;-91
2024/03/31 01:21:19;;;;;;;5.43;1.43;;;;;;;;;;6214710;23;20432;-91
2024/03/31 01:23:52;;;;;;;10.88;2.20;;;;;;;;;;6187828;23;20222;-90
2024/03/31 01:26:18;;;;;;;8.45;2.10;;;;;;;;;;6187778;23;20002;-90
2024/03/31 01:28:43;;;;;;;16.08;1.83;;;;;;;;;;6214487;23;19997;-90
2024/03/31 01:31:08;;;;;;;15.43;2.17;;;;;;;;;;6214561;23;20015;-90
2024/03/31 01:33:34;;;;;;;8.43;2.03;;;;;;;;;;6214329;23;20287;-90
2024/03/31 01:36:02;;;;;;;4.53;1.07;;;;;;;;;;6187758;23;20447;-90
2024/03/31 01:38:27;;;;;;;6.10;1.70;;;;;;;;;;6212572;23;20728;-91
2024/03/31 01:40:53;;;;;;;7.20;1.27;;;;;;;;;;6187841;23;19996;-91
2024/03/31 01:43:18;;;;;;;9.57;1.45;;;;;;;;;;6214217;23;19999;-90
2024/03/31 01:45:43;;;;;;;5.88;1.17;;;;;;;;;;6214649;23;20103;-91
2024/03/31 01:48:09;;;;;;;7.23;1.50;;;;;;;;;;6214232;23;20000;-91
2024/03/31 01:50:34;;;;;;;7.03;2.03;;;;;;;;;;6212801;23;20337;-90
2024/03/31 01:52:59;;;;;;;8.20;1.53;;;;;;;;;;6214455;23;20301;-92
2024/03/31 01:55:24;;;;;;;6.47;2.97;;;;;;;;;;6214150;23;20253;-91
2024/03/31 01:57:50;;;;;;;9.63;2.25;;;;;;;;;;6187364;23;20242;-89
2024/03/31 02:00:15;;;;;;;13.07;1.90;;;;;;;;;;6187674;23;20005;-90
2024/03/31 02:02:40;;;;;;;4.50;1.23;;;;;;;;;;6214357;23;20249;-90
2024/03/31 02:05:05;;;;;;;5.72;1.35;;;;;;;;;;6214317;23;20412;-90
2024/03/31 02:07:30;;;;;;;5.32;1.63;;;;;;;;;;6214263;23;20375;-90
2024/03/31 02:09:56;;;;;;;12.45;1.88;;;;;;;;;;6214918;23;20379;-90
2024/03/31 02:12:21;;;;;;;11.93;1.95;;;;;;;;;;6215473;23;20004;-90
2024/03/31 02:14:46;;;;;;;5.70;1.57;;;;;;;;;;6188360;23;20015;-91
2024/03/31 02:17:11;;;;;;;11.27;2.43;;;;;;;;;;6214958;23;20305;-90
2024/03/31 02:19:37;;;;;;;9.13;1.53;;;;;;;;;;6214776;23;20309;-90
2024/03/31 02:22:02;;;;;;;6.18;1.75;;;;;;;;;;6214849;23;20253;-90
2024/03/31 02:24:27;;;;;;;6.70;2.00;;;;;;;;;;6215224;23;19997;-90
2024/03/31 02:26:53;;;;;;;11.30;1.83;;;;;;;;;;6214916;23;19997;-90
2024/03/31 02:29:18;;;;;;;8.95;1.70;;;;;;;;;;6214927;23;20222;-90
2024/03/31 02:31:44;;;;;;;10.85;2.60;;;;;;;;;;6214916;23;20001;-90
2024/03/31 02:34:09;;;;;;;11.38;2.05;;;;;;;;;;6214606;23;20420;-90
2024/03/31 02:36:34;;;;;;;13.63;2.30;;;;;;;;;;6213067;23;20000;-90
2024/03/31 02:38:59;;;;;;;6.23;1.77;;;;;;;;;;6214303;23;19997;-90
2024/03/31 02:41:24;;;;;;;7.55;1.80;;;;;;;;;;6213358;23;20222;-90
2024/03/31 02:43:51;;;;;;;6.77;1.73;;;;;;;;;;6213351;23;20095;-90
2024/03/31 02:46:16;;;;;;;9.18;1.63;;;;;;;;;;6213477;23;20230;-90
2024/03/31 02:48:41;;;;;;;5.63;1.73;;;;;;;;;;6188330;23;20001;-91
2024/03/31 02:51:06;;;;;;;13.07;1.92;;;;;;;;;;6216286;23;20252;-90
2024/03/31 02:53:32;;;;;;;10.50;1.55;;;;;;;;;;6216910;23;20412;-91
2024/03/31 02:55:57;;;;;;;19.23;4.07;;;;;;;;;;6216830;23;20497;-91
2024/03/31 02:58:22;;;;;;;13.32;3.00;;;;;;;;;;6216955;23;20654;-90
2024/03/31 03:00:47;;;;;;;8.23;1.85;;;;;;;;;;6216886;23;20439;-91
2024/03/31 03:03:13;;;;;;;12.47;1.80;;;;;;;;;;6216664;23;20011;-90
2024/03/31 03:05:38;;;;;;;12.13;2.60;;;;;;;;;;6216861;23;20214;-90
2024/03/31 03:08:03;;;;;;;9.35;2.15;;;;;;;;;;6217064;23;20218;-90
2024/03/31 03:10:29;;;;;;;7.75;2.45;;;;;;;;;;6216438;23;20032;-90
2024/03/31 03:12:54;;;;;;;13.27;2.20;;;;;;;;;;6216575;23;20000;-90
2024/03/31 03:15:19;;;;;;;10.27;2.10;;;;;;;;;;6216492;23;20454;-91
2024/03/31 03:17:47;;;;;;;6.43;2.25;;;;;;;;;;6216821;23;20656;-90
2024/03/31 03:20:13;;;;;;;5.45;1.65;;;;;;;;;;6215847;23;19997;-90
2024/03/31 03:22:38;;;;;;;13.23;2.10;;;;;;;;;;6215550;23;20027;-90
2024/03/31 03:25:03;;;;;;;13.73;1.88;;;;;;;;;;6215760;23;19993;-90
2024/03/31 03:27:29;;;;;;;7.22;1.80;;;;;;;;;;6215619;23;19988;-90
2024/03/31 03:29:54;;;;;;;8.90;1.88;;;;;;;;;;6215694;23;20000;-90
2024/03/31 03:32:19;;;;;;;4.72;2.20;;;;;;;;;;6215831;23;20000;-90
2024/03/31 03:34:44;;;;;;;15.15;2.10;;;;;;;;;;6215696;23;20003;-90
2024/03/31 03:37:10;;;;;;;13.05;3.60;;;;;;;;;;6215273;23;20436;-90
2024/03/31 03:39:36;;;;;;;12.68;2.90;;;;;;;;;;6215538;23;20004;-90
2024/03/31 03:42:01;;;;;;;8.55;1.83;;;;;;;;;;6215544;23;19996;-90
2024/03/31 03:44:26;;;;;;;9.45;2.42;;;;;;;;;;6189067;23;20004;-91
2024/03/31 03:46:51;;;;;;;11.50;2.17;;;;;;;;;;6188732;23;20139;-91
2024/03/31 03:49:17;;;;;;;18.75;1.92;;;;;;;;;;6213875;23;20381;-89
2024/03/31 03:51:42;;;;;;;16.13;3.25;;;;;;;;;;6215230;23;20067;-90
2024/03/31 03:54:07;;;;;;;8.43;1.87;;;;;;;;;;6213922;23;20001;-90
2024/03/31 03:56:32;;;;;;;13.13;2.33;;;;;;;;;;6188739;23;20226;-90
2024/03/31 03:58:58;;;;;;;10.15;1.92;;;;;;;;;;6188775;23;19996;-90
2024/03/31 04:01:23;;;;;;;10.93;2.40;;;;;;;;;;6214991;23;19996;-90
2024/03/31 04:03:48;;;;;;;11.38;2.60;;;;;;;;;;6215404;23;20215;-90
2024/03/31 04:06:13;;;;;;;14.02;3.25;;;;;;;;;;6215394;23;20007;-90
2024/03/31 04:08:39;;;;;;;6.13;2.30;;;;;;;;;;6215332;23;20470;-91
2024/03/31 04:11:05;;;;;;;10.55;2.10;;;;;;;;;;6215234;23;20250;-91
2024/03/31 04:13:30;;;;;;;10.80;2.38;;;;;;;;;;6215172;23;20430;-91
2024/03/31 04:15:56;;;;;;;14.15;2.25;;;;;;;;;;6213222;23;20000;-90
2024/03/31 04:18:21;;;;;;;7.80;2.75;;;;;;;;;;6188802;23;20001;-91
2024/03/31 04:20:46;;;;;;;6.95;2.33;;;;;;;;;;6215180;23;20088;-90
2024/03/31 04:23:12;;;;;;;7.78;2.55;;;;;;;;;;6188436;23;19993;-90
2024/03/31 04:25:37;;;;;;;7.05;2.90;;;;;;;;;;6215069;23;20000;-90
2024/03/31 04:28:03;;;;;;;11.48;2.22;;;;;;;;;;6213553;23;20019;-91
2024/03/31 04:30:28;;;;;;;10.15;2.88;;;;;;;;;;6216037;23;20434;-90
2024/03/31 04:32:53;;;;;;;10.18;3.03;;;;;;;;;;6215955;23;19993;-90
2024/03/31 04:35:18;;;;;;;14.00;3.15;;;;;;;;;;6189365;23;20009;-91
2024/03/31 04:37:50;;;;;;;8.57;2.50;;;;;;;;;;6189019;23;20019;-90
2024/03/31 04:40:15;;;;;;;14.05;2.75;;;;;;;;;;6216041;23;20222;-91
2024/03/31 04:42:40;;;;;;;15.98;2.70;;;;;;;;;;6214002;23;19997;-90
2024/03/31 04:45:06;;;;;;;11.10;2.92;;;;;;;;;;6215553;23;20001;-90
2024/03/31 04:47:31;;;;;;;12.07;3.38;;;;;;;;;;6214074;23;20024;-90
2024/03/31 04:49:56;;;;;;;12.20;2.80;;;;;;;;;;6215498;23;20008;-90
2024/03/31 04:52:25;;;;;;;7.87;3.23;;;;;;;;;;6215951;23;19997;-90
2024/03/31 04:54:50;;;;;;;8.48;3.33;;;;;;;;;;6214154;23;20396;-90
2024/03/31 04:57:15;;;;;;;12.25;4.78;;;;;;;;;;6189093;23;20622;-91
2024/03/31 04:59:40;;;;;;;9.23;3.40;;;;;;;;;;6215897;23;20003;-91
2024/03/31 05:02:05;;;;;;;10.03;2.97;;;;;;;;;;6215643;23;20665;-90
2024/03/31 05:04:32;;;;;;;9.80;4.07;;;;;;;;;;6215074;23;20657;-91
2024/03/31 05:06:57;;;;;;;15.98;3.10;;;;;;;;;;6215792;23;20679;-90
2024/03/31 05:09:22;;;;;;;6.10;2.63;;;;;;;;;;6213877;23;20005;-90
2024/03/31 05:11:47;;;;;;;11.18;3.22;;;;;;;;;;6215409;23;20304;-91
2024/03/31 05:14:13;;;;;;;8.60;2.47;;;;;;;;;;6188640;23;20382;-90
2024/03/31 05:16:38;;;;;;;9.57;3.42;;;;;;;;;;6188801;23;20704;-90
2024/03/31 05:19:03;;;;;;;7.63;3.03;;;;;;;;;;6215653;23;20020;-91
2024/03/31 05:21:28;;;;;;;10.90;4.50;;;;;;;;;;6215319;23;19992;-91
2024/03/31 05:23:54;;;;;;;13.37;4.47;;;;;;;;;;6215950;23;20230;-90
2024/03/31 05:26:19;;;;;;;12.10;3.87;;;;;;;;;;6188748;23;20233;-91
2024/03/31 05:28:44;;;;;;;10.93;3.57;;;;;;;;;;6215237;23;20657;-90
2024/03/31 05:31:09;;;;;;;14.57;4.80;;;;;;;;;;6215113;23;20701;-90
2024/03/31 05:33:34;;;;;;;10.88;4.32;;;;;;;;;;6215008;23;20218;-90
2024/03/31 05:36:00;;;;;;;7.30;4.22;;;;;;;;;;6215153;23;20001;-90
2024/03/31 05:38:25;;;;;;;11.48;3.80;;;;;;;;;;6175866;23;20009;-90
2024/03/31 05:40:50;;;;;;;8.80;4.07;;;;;;;;;;6184157;23;20001;-91
2024/03/31 05:43:16;;;;;;;16.77;4.67;;;;;;;;;;6182842;23;20003;-91
2024/03/31 05:45:41;;;;;;;8.77;4.20;;;;;;;;;;6184407;23;20599;-91
2024/03/31 05:48:07;;;;;;;19.98;5.35;;;;;;;;;;6182563;23;20779;-91
2024/03/31 05:50:32;;;;;;;11.00;4.03;;;;;;;;;;6184040;23;20547;-91
2024/03/31 05:52:57;;;;;;;10.02;4.45;;;;;;;;;;6184303;23;19993;-90
2024/03/31 05:55:23;;;;;;;20.73;6.70;;;;;;;;;;6182622;23;20008;-90
2024/03/31 05:57:48;;;;;;;8.27;4.23;;;;;;;;;;6184528;23;20242;-90
2024/03/31 06:00:13;;;;;;;13.10;4.43;;;;;;;;;;6184488;23;20262;-91
2024/03/31 06:02:38;;;;;;;11.93;4.55;;;;;;;;;;6184252;23;20534;-90
2024/03/31 06:05:04;;;;;;;16.73;5.50;;;;;;;;;;6183943;23;20004;-90
2024/03/31 06:07:31;;;;;;;14.93;5.20;;;;;;;;;;6184609;23;20357;-90
2024/03/31 06:09:56;;;;;;;12.82;5.47;;;;;;;;;;6184244;23;20132;-91
2024/03/31 06:12:22;;;;;;;11.13;5.10;;;;;;;;;;6184189;23;20028;-91
2024/03/31 06:14:47;;;;;;;12.17;4.90;;;;;;;;;;6182423;23;20043;-90
2024/03/31 06:17:12;;;;;;;13.27;5.20;;;;;;;;;;6183872;23;20282;-90
2024/03/31 06:19:37;;;;;;;11.43;6.18;;;;;;;;;;6183948;23;20274;-91
2024/03/31 06:22:02;;;;;;;10.93;6.00;;;;;;;;;;6184172;23;20001;-90
2024/03/31 06:24:28;;;;;;;11.88;6.18;;;;;;;;;;6182400;23;20273;-91
2024/03/31 06:26:53;;;;;;;19.70;6.97;;;;;;;;;;6182552;23;20324;-91
2024/03/31 06:29:18;;;;;;;13.27;6.07;;;;;;;;;;6182449;23;20015;-90
2024/03/31 06:31:43;;;;;;;23.07;8.27;;;;;;;;;;6184050;23;20063;-89
2024/03/31 06:34:09;;;;;;;13.37;6.03;;;;;;;;;;6184180;23;20226;-90
2024/03/31 06:36:34;;;;;;;15.98;6.30;;;;;;;;;;6183900;23;20242;-91
2024/03/31 06:38:59;;;;;;;15.83;6.50;;;;;;;;;;6203151;23;20005;-91
2024/03/31 06:41:24;;;;;;;17.17;6.67;;;;;;;;;;6213994;23;20241;-90
2024/03/31 06:43:49;;;;;;;13.13;5.80;;;;;;;;;;6213849;23;20301;-90
2024/03/31 06:46:15;;;;;;;15.63;6.00;;;;;;;;;;6213952;23;20301;-91
2024/03/31 06:48:40;;;;;;;18.23;7.70;;;;;;;;;;6214747;23;20538;-91
2024/03/31 06:51:05;;;;;;;14.23;6.70;;;;;;;;;;6214743;23;20008;-91
2024/03/31 06:53:30;;;;;;;19.17;7.60;;;;;;;;;;6212504;23;20322;-91
2024/03/31 06:55:56;;;;;;;15.80;6.57;;;;;;;;;;6214617;23;19996;-91
2024/03/31 06:58:21;;;;;;;11.82;7.30;;;;;;;;;;6214752;23;19999;-91
2024/03/31 07:00:46;;;;;;;16.98;7.00;;;;;;;;;;6188230;23;20688;-91
2024/03/31 07:03:11;;;;;;;14.48;6.47;;;;;;;;;;6213199;23;20027;-91
2024/03/31 07:05:37;;;;;;;14.07;7.03;;;;;;;;;;6214724;23;20005;-92
2024/03/31 07:08:02;;;;;;;16.57;7.43;;;;;;;;;;6214787;23;20033;-92
2024/03/31 07:10:28;;;;;;;12.50;6.32;;;;;;;;;;6213073;23;20254;-92
2024/03/31 07:12:53;;;;;;;11.70;7.30;;;;;;;;;;6213364;23;19997;-91
2024/03/31 07:15:18;;;;;;;12.40;6.32;;;;;;;;;;6212948;23;20003;-91
2024/03/31 07:17:44;;;;;;;26.70;10.05;;;;;;;;;;6213271;23;20007;-92
2024/03/31 07:20:09;;;;;;;13.32;7.03;;;;;;;;;;6215395;23;19993;-91
2024/03/31 07:22:34;;;;;;;18.67;7.53;;;;;;;;;;6188345;23;20396;-92
2024/03/31 07:24:59;;;;;;;14.05;6.72;;;;;;;;;;6187996;23;20000;-92
2024/03/31 07:27:25;;;;;;;15.93;8.07;;;;;;;;;;6214469;23;20072;-91
2024/03/31 07:29:50;;;;;;;13.90;8.00;;;;;;;;;;6187177;23;20343;-91
2024/03/31 07:32:15;;;;;;;15.63;8.20;;;;;;;;;;6214737;23;20730;-91
2024/03/31 07:34:40;;;;;;;17.30;7.85;;;;;;;;;;6214492;23;20331;-91
2024/03/31 07:37:06;;;;;;;16.52;9.10;;;;;;;;;;6188543;23;20390;-91
2024/03/31 07:39:31;;;;;;;11.00;7.27;;;;;;;;;;6216589;23;20050;-92
2024/03/31 07:41:56;;;;;;;15.77;8.77;;;;;;;;;;6189893;23;20233;-91
2024/03/31 07:44:21;;;;;;;13.23;7.77;;;;;;;;;;6216466;23;20007;-91
2024/03/31 07:46:47;;;;;;;13.83;7.50;;;;;;;;;;6216262;23;20225;-92
2024/03/31 07:49:12;;;;;;;13.70;7.40;;;;;;;;;;6216256;23;20237;-91
2024/03/31 07:51:37;;;;;;;16.58;7.93;;;;;;;;;;6218368;23;20475;-92
2024/03/31 07:54:02;;;;;;;18.63;7.97;;;;;;;;;;6215150;23;20323;-92
2024/03/31 07:56:27;;;;;;;17.38;7.82;;;;;;;;;;6216125;23;20685;-92
2024/03/31 07:58:53;;;;;;;16.88;8.75;;;;;;;;;;6215823;23;20048;-93
2024/03/31 08:01:18;;;;;;;17.03;7.73;;;;;;;;;;6216364;23;20415;-92
2024/03/31 08:03:43;;;;;;;16.83;8.20;;;;;;;;;;6215617;23;20222;-91
2024/03/31 08:06:08;;;;;;;14.68;7.20;;;;;;;;;;6215398;23;19993;-92
2024/03/31 08:08:34;;;;;;;10.90;6.93;;;;;;;;;;6215836;23;20071;-92
2024/03/31 08:10:59;;;;;;;12.23;5.95;;;;;;;;;;6188941;23;20349;-92
2024/03/31 08:13:25;;;;;;;13.10;7.35;;;;;;;;;;6215620;23;19997;-92
2024/03/31 08:15:50;;;;;;;11.15;6.78;;;;;;;;;;6215721;23;20051;-92
2024/03/31 08:18:16;;;;;;;11.98;5.75;;;;;;;;;;6215545;23;19989;-92
2024/03/31 08:20:41;;;;;;;15.68;6.20;;;;;;;;;;6215425;23;20054;-92
2024/03/31 08:23:06;;;;;;;11.17;5.63;;;;;;;;;;6215595;23;20123;-91
2024/03/31 08:25:31;;;;;;;13.17;6.10;;;;;;;;;;6213860;23;20319;-92
2024/03/31 08:27:56;;;;;;;10.57;6.25;;;;;;;;;;6213997;23;20226;-93
2024/03/31 08:30:22;;;;;;;11.77;6.40;;;;;;;;;;6215175;23;20428;-92
2024/03/31 08:32:47;;;;;;;11.18;6.20;;;;;;;;;;6216012;23;20748;-91
2024/03/31 08:35:13;;;;;;;13.82;7.25;;;;;;;;;;6215357;23;20478;-92
2024/03/31 08:37:38;;;;;;;9.38;5.93;;;;;;;;;;6215153;23;19996;-92
2024/03/31 08:40:04;;;;;;;11.90;5.80;;;;;;;;;;6213506;23;20000;-90
2024/03/31 08:42:43;;;;;;;11.65;6.03;;;;;;;;;;6215050;23;20228;-92
2024/03/31 08:45:13;;;;;;;15.02;6.13;;;;;;;;;;6215180;23;20007;-92
2024/03/31 08:47:39;;;;;;;11.30;6.10;;;;;;;;;;6188520;23;19997;-92
2024/03/31 08:50:04;;;;;;;12.20;5.53;;;;;;;;;;6188623;23;20008;-91
2024/03/31 08:52:30;;;;;;;10.98;5.65;;;;;;;;;;6213408;23;20104;-92
2024/03/31 08:54:55;;;;;;;7.73;5.30;;;;;;;;;;6213894;23;20001;-91
2024/03/31 08:57:21;;;;;;;11.70;6.60;;;;;;;;;;6214729;23;20222;-91
2024/03/31 08:59:47;;;;;;;13.00;7.97;;;;;;;;;;6215122;23;20071;-90
2024/03/31 09:02:16;;;;;;;13.43;7.30;;;;;;;;;;6215202;23;19996;-90
2024/03/31 09:04:41;;;;;;;14.68;7.75;;;;;;;;;;6214909;23;20050;-91
2024/03/31 09:07:06;;;;;;;13.95;6.90;;;;;;;;;;6214894;23;20355;-91
2024/03/31 09:09:31;;;;;;;16.83;7.57;;;;;;;;;;6214961;23;20140;-92
2024/03/31 09:11:56;;;;;;;12.98;7.00;;;;;;;;;;6215443;23;20004;-91
2024/03/31 09:14:22;;;;;;;13.90;7.65;;;;;;;;;;6214058;23;20007;-91
2024/03/31 09:16:48;;;;;;;11.80;7.63;;;;;;;;;;6214053;23;20024;-91
2024/03/31 09:19:13;;;;;;;9.75;6.65;;;;;;;;;;6188749;23;19996;-90
2024/03/31 09:21:47;;;;;;;23.55;8.93;;;;;;;;;;6215230;23;19997;-91
2024/03/31 09:24:13;;;;;;;15.88;9.85;;;;;;;;;;6214651;23;19993;-91
2024/03/31 09:26:39;;;;;;;15.82;9.95;;;;;;;;;;6215749;23;20431;-91
2024/03/31 09:29:04;;;;;;;20.23;9.55;;;;;;;;;;6213948;23;19996;-91
2024/03/31 09:31:30;;;;;;;20.70;10.80;;;;;;;;;;6215238;23;20086;-91
2024/03/31 09:33:55;;;;;;;15.60;10.00;;;;;;;;;;6188728;23;19997;-91
2024/03/31 09:36:20;;;;;;;18.08;10.65;;;;;;;;;;6188332;23;20071;-92
2024/03/31 09:38:45;;;;;;;18.00;10.60;;;;;;;;;;6172366;23;20001;-91
2024/03/31 09:41:11;;;;;;;16.10;10.47;;;;;;;;;;6161000;23;20227;-91
2024/03/31 09:43:36;;;;;;;17.08;10.40;;;;;;;;;;6185239;23;20214;-92
2024/03/31 09:46:02;;;;;;;15.48;9.55;;;;;;;;;;6159040;23;20001;-92
2024/03/31 09:48:30;;;;;;;17.17;9.98;;;;;;;;;;6185387;23;20005;-92
2024/03/31 09:51:14;;;;;;;18.08;11.38;;;;;;;;;;6184916;23;20011;-93
2024/03/31 09:53:40;;;;;;;16.50;10.00;;;;;;;;;;6159020;23;19993;-91
2024/03/31 09:56:07;;;;;;;16.00;10.32;;;;;;;;;;6185474;23;20001;-91
2024/03/31 09:58:34;;;;;;;15.38;10.20;;;;;;;;;;6158679;23;19997;-92
2024/03/31 10:01:01;;;;;;;16.15;10.23;;;;;;;;;;6184872;23;20000;-92
2024/03/31 10:03:27;;;;;;;15.73;10.95;;;;;;;;;;6158779;23;20020;-91
2024/03/31 10:05:54;;;;;;;16.00;9.85;;;;;;;;;;6184889;23;20032;-91
2024/03/31 10:08:20;;;;;;;20.27;10.55;;;;;;;;;;6184835;23;19993;-91
2024/03/31 10:10:46;;;;;;;16.70;10.57;;;;;;;;;;6184819;23;20040;-92
2024/03/31 10:13:11;;;;;;;15.40;9.70;;;;;;;;;;6185065;23;20009;-92
2024/03/31 10:15:36;;;;;;;15.93;10.15;;;;;;;;;;6158730;23;19997;-91
2024/03/31 10:18:03;;;;;;;15.50;10.05;;;;;;;;;;6158208;23;20007;-91
2024/03/31 10:20:29;;;;;;;12.95;8.68;;;;;;;;;;6184871;23;20166;-91
2024/03/31 10:22:54;;;;;;;13.25;9.30;;;;;;;;;;6184127;23;20072;-91
2024/03/31 10:25:22;;;;;;;12.02;8.07;;;;;;;;;;6184532;23;20474;-91
2024/03/31 10:27:50;;;;;;;15.35;8.82;;;;;;;;;;6183995;23;20020;-92
2024/03/31 10:30:15;;;;;;;11.48;7.95;;;;;;;;;;6157691;23;20313;-92
2024/03/31 10:32:41;;;;;;;13.70;8.15;;;;;;;;;;6184104;23;20051;-92
2024/03/31 10:35:06;;;;;;;18.20;8.82;;;;;;;;;;6184093;23;20003;-92
2024/03/31 10:37:32;;;;;;;15.77;10.65;;;;;;;;;;6184981;23;20435;-91
2024/03/31 10:40:01;;;;;;;17.38;11.00;;;;;;;;;;6214185;23;20047;-91
2024/03/31 10:42:27;;;;;;;20.48;12.02;;;;;;;;;;6213909;23;20308;-91
2024/03/31 10:44:53;;;;;;;22.95;13.00;;;;;;;;;;6214079;23;20056;-91
2024/03/31 10:47:18;;;;;;;18.60;11.27;;;;;;;;;;6214247;23;20418;-91
2024/03/31 10:49:44;;;;;;;18.52;11.73;;;;;;;;;;6187350;23;20004;-92
2024/03/31 10:52:18;;;;;;;19.40;12.10;;;;;;;;;;6187411;23;19996;-91
2024/03/31 10:54:43;;;;;;;18.75;12.13;;;;;;;;;;6213943;23;20366;-92
2024/03/31 10:57:12;;;;;;;19.10;12.43;;;;;;;;;;6213964;23;20000;-91
2024/03/31 10:59:38;;;;;;;15.88;10.88;;;;;;;;;;6214095;23;20595;-92
2024/03/31 11:02:10;;;;;;;13.88;10.27;;;;;;;;;;6214117;23;19996;-91
2024/03/31 11:04:35;;;;;;;16.05;9.18;;;;;;;;;;6187777;23;20007;-92
2024/03/31 11:07:02;;;;;;;17.10;8.73;;;;;;;;;;6212270;23;20327;-92
2024/03/31 11:09:28;;;;;;;10.98;8.43;;;;;;;;;;6187326;23;20001;-91
2024/03/31 11:11:54;;;;;;;17.70;9.20;;;;;;;;;;6212903;23;20000;-92
2024/03/31 11:14:22;;;;;;;11.07;7.75;;;;;;;;;;6215808;23;20003;-92
2024/03/31 11:16:48;;;;;;;14.73;8.07;;;;;;;;;;6214561;23;20004;-92
2024/03/31 11:19:13;;;;;;;11.67;7.50;;;;;;;;;;6215941;23;20039;-92
2024/03/31 11:21:38;;;;;;;13.55;8.60;;;;;;;;;;6216077;23;20214;-92
2024/03/31 11:24:04;;;;;;;14.13;9.03;;;;;;;;;;6189270;23;20079;-92
2024/03/31 11:26:30;;;;;;;10.48;8.27;;;;;;;;;;6215805;23;20250;-92
2024/03/31 11:28:57;;;;;;;11.95;8.68;;;;;;;;;;6188924;23;20008;-91
2024/03/31 11:31:22;;;;;;;11.65;9.20;;;;;;;;;;6189050;23;20035;-92
2024/03/31 11:33:48;;;;;;;15.15;9.02;;;;;;;;;;6216018;23;20415;-92
2024/03/31 11:36:15;;;;;;;11.85;8.95;;;;;;;;;;6215660;23;20368;-92
2024/03/31 11:38:40;;;;;;;14.13;8.85;;;;;;;;;;6215396;23;20008;-92
2024/03/31 11:41:05;;;;;;;16.77;9.97;;;;;;;;;;6215661;23;20537;-91
2024/03/31 11:43:30;;;;;;;14.20;9.57;;;;;;;;;;6214109;23;20225;-92
2024/03/31 11:45:56;;;;;;;20.55;8.63;;;;;;;;;;6214184;23;20447;-92
2024/03/31 11:48:21;;;;;;;13.13;8.52;;;;;;;;;;6215634;23;20000;-93
2024/03/31 11:50:46;;;;;;;13.57;7.80;;;;;;;;;;6189035;23;20019;-91
2024/03/31 11:53:11;;;;;;;12.33;8.53;;;;;;;;;;6213987;23;20211;-92
2024/03/31 11:55:39;;;;;;;15.13;8.43;;;;;;;;;;6215521;23;20234;-91
2024/03/31 11:58:06;;;;;;;11.52;8.00;;;;;;;;;;6188772;23;20685;-92
2024/03/31 12:00:31;;;;;;;15.20;7.80;;;;;;;;;;6215331;23;20331;-92
2024/03/31 12:03:02;;;;;;;9.93;7.23;;;;;;;;;;6215492;23;20067;-92
2024/03/31 12:05:28;;;;;;;12.55;8.23;;;;;;;;;;6215802;23;20534;-91
2024/03/31 12:07:53;;;;;;;12.10;8.37;;;;;;;;;;6213688;23;20000;-92
2024/03/31 12:10:18;;;;;;;14.25;8.02;;;;;;;;;;6188728;23;20253;-92
2024/03/31 12:12:44;;;;;;;12.25;6.90;;;;;;;;;;6215487;23;20412;-91
2024/03/31 12:15:09;;;;;;;11.82;7.45;;;;;;;;;;6213774;23;20180;-91
2024/03/31 12:17:35;;;;;;;12.43;6.85;;;;;;;;;;6215362;23;20043;-91
2024/03/31 12:20:05;;;;;;;11.48;6.57;;;;;;;;;;6188372;23;20332;-92
2024/03/31 12:22:30;;;;;;;14.07;6.97;;;;;;;;;;6215146;23;20007;-91
2024/03/31 12:24:55;;;;;;;14.13;7.68;;;;;;;;;;6215438;23;20071;-91
2024/03/31 12:27:20;;;;;;;12.95;6.78;;;;;;;;;;6188792;23;20485;-92
2024/03/31 12:29:46;;;;;;;13.10;6.18;;;;;;;;;;6188513;23;19997;-92
2024/03/31 12:32:11;;;;;;;11.33;6.30;;;;;;;;;;6215183;23;19997;-91
2024/03/31 12:34:37;;;;;;;8.27;5.32;;;;;;;;;;6188821;23;20304;-92
2024/03/31 12:37:02;;;;;;;11.90;5.70;;;;;;;;;;6215115;23;19997;-92
2024/03/31 12:39:28;;;;;;;15.35;6.05;;;;;;;;;;6215716;23;20272;-92
2024/03/31 12:41:54;;;;;;;11.65;5.65;;;;;;;;;;6214330;23;20056;-92
2024/03/31 12:44:19;;;;;;;7.38;5.40;;;;;;;;;;6189499;23;20007;-91
2024/03/31 12:46:44;;;;;;;10.03;4.30;;;;;;;;;;6188503;23;19996;-91
2024/03/31 12:49:11;;;;;;;12.32;4.63;;;;;;;;;;6215765;23;20301;-91
2024/03/31 12:51:36;;;;;;;10.27;5.25;;;;;;;;;;6214312;23;20012;-92
2024/03/31 12:54:03;;;;;;;13.35;5.57;;;;;;;;;;6189584;23;20305;-92
2024/03/31 12:56:28;;;;;;;12.23;5.43;;;;;;;;;;6189193;23;20058;-92
2024/03/31 12:58:53;;;;;;;13.60;4.95;;;;;;;;;;6215933;23;19992;-92
2024/03/31 13:01:19;;;;;;;10.73;5.45;;;;;;;;;;6214351;23;20001;-92
2024/03/31 13:03:45;;;;;;;15.15;5.25;;;;;;;;;;6213984;23;20502;-91
2024/03/31 13:06:10;;;;;;;6.75;4.50;;;;;;;;;;6215476;23;20011;-93
2024/03/31 13:08:36;;;;;;;11.85;5.03;;;;;;;;;;6215387;23;20378;-92
2024/03/31 13:11:01;;;;;;;9.57;4.03;;;;;;;;;;6215489;23;20412;-92
2024/03/31 13:13:27;;;;;;;8.07;4.60;;;;;;;;;;6215381;23;19993;-92
2024/03/31 13:15:53;;;;;;;14.40;5.47;;;;;;;;;;6189045;23;20001;-92
2024/03/31 13:18:18;;;;;;;10.50;4.60;;;;;;;;;;6215272;23;19997;-91
2024/03/31 13:20:43;;;;;;;6.00;4.37;;;;;;;;;;6215560;23;20028;-92
2024/03/31 13:23:08;;;;;;;10.30;5.27;;;;;;;;;;6215348;23;20268;-92
2024/03/31 13:25:33;;;;;;;12.43;5.20;;;;;;;;;;6214382;23;20218;-92
2024/03/31 13:27:59;;;;;;;8.97;4.27;;;;;;;;;;6215296;23;19997;-92
2024/03/31 13:30:30;;;;;;;9.68;4.70;;;;;;;;;;6213632;23;20250;-92
2024/03/31 13:32:55;;;;;;;10.45;5.25;;;;;;;;;;6214374;23;20427;-92
2024/03/31 13:35:21;;;;;;;11.48;4.72;;;;;;;;;;6213407;23;20001;-92
2024/03/31 13:37:46;;;;;;;9.15;4.47;;;;;;;;;;6188428;23;19996;-92
2024/03/31 13:40:16;;;;;;;10.20;4.80;;;;;;;;;;6215341;23;20408;-91
2024/03/31 13:42:42;;;;;;;11.07;4.50;;;;;;;;;;6215597;23;19996;-92
2024/03/31 13:45:07;;;;;;;10.32;4.75;;;;;;;;;;6213793;23;19997;-91
2024/03/31 13:47:33;;;;;;;10.70;4.88;;;;;;;;;;6213655;23;20332;-91
2024/03/31 13:49:58;;;;;;;10.82;4.47;;;;;;;;;;6215127;23;20128;-92
2024/03/31 13:52:24;;;;;;;11.13;5.50;;;;;;;;;;6214256;23;20339;-92
2024/03/31 13:54:49;;;;;;;6.80;4.95;;;;;;;;;;6214360;23;19993;-91
2024/03/31 13:57:15;;;;;;;9.00;4.38;;;;;;;;;;6187891;23;19999;-93
2024/03/31 13:59:40;;;;;;;8.33;4.03;;;;;;;;;;6187594;23;19997;-92
2024/03/31 14:02:05;;;;;;;7.30;4.40;;;;;;;;;;6214403;23;20661;-92
2024/03/31 14:04:30;;;;;;;9.60;5.65;;;;;;;;;;6214274;23;20741;-91
2024/03/31 14:06:56;;;;;;;11.37;4.73;;;;;;;;;;6214206;23;20008;-91
2024/03/31 14:09:21;;;;;;;8.70;4.77;;;;;;;;;;6213069;23;20229;-92
2024/03/31 14:11:46;;;;;;;9.20;4.83;;;;;;;;;;6212653;23;20273;-92
2024/03/31 14:14:11;;;;;;;8.13;5.33;;;;;;;;;;6187533;23;20550;-92
2024/03/31 14:16:36;;;;;;;9.87;4.83;;;;;;;;;;6214309;23;20723;-92
2024/03/31 14:19:01;;;;;;;8.83;4.37;;;;;;;;;;6187432;23;20681;-92
2024/03/31 14:21:27;;;;;;;10.80;5.45;;;;;;;;;;6214601;23;20629;-92
2024/03/31 14:23:52;;;;;;;11.45;4.90;;;;;;;;;;6214198;23;20000;-91